Time;durP1;ratioP1;P1;durP2;ratioP2;P2;SDS_P1;SDS_P2;PMS_P1;PMS_P2;Temp;Humidity;BMP_temperature;BMP_pressure;BME280_temperature;BME280_humidity;BME280_pressure;Samples;Min_cycle;Max_cycle;Signal;HPM_P1;HPM_P2
2023/08/15 00:01:02;;;;;;;3.28;2.97;;;25.50;71.50;;;;;;4963883;28;20081;-48
2023/08/15 00:03:27;;;;;;;3.63;3.33;;;25.50;71.40;;;;;;4957991;28;20242;-48
2023/08/15 00:05:53;;;;;;;2.80;2.60;;;25.50;71.40;;;;;;4962474;28;20114;-50
2023/08/15 00:08:18;;;;;;;3.65;3.08;;;25.50;71.40;;;;;;4954046;28;20051;-52
2023/08/15 00:10:44;;;;;;;3.22;2.88;;;25.50;71.40;;;;;;4964716;28;20061;-48
2023/08/15 00:13:10;;;;;;;2.75;2.55;;;25.50;71.30;;;;;;4960209;28;20658;-48
2023/08/15 00:15:35;;;;;;;3.38;2.60;;;25.50;71.40;;;;;;4955517;28;20117;-52
2023/08/15 00:18:01;;;;;;;2.75;2.53;;;25.40;71.10;;;;;;4955728;28;20101;-51
2023/08/15 00:20:27;;;;;;;2.72;2.33;;;25.40;71.20;;;;;;4961087;28;20113;-49
2023/08/15 00:22:52;;;;;;;2.65;2.45;;;25.40;71.30;;;;;;4955783;28;20027;-49
2023/08/15 00:25:18;;;;;;;4.43;2.53;;;25.50;71.30;;;;;;4954182;28;20039;-51
2023/08/15 00:27:43;;;;;;;3.33;2.35;;;25.40;71.20;;;;;;4957242;28;20058;-55
2023/08/15 00:30:09;;;;;;;2.35;2.15;;;25.40;71.20;;;;;;4955353;28;20035;-48
2023/08/15 00:32:35;;;;;;;2.20;2.05;;;25.40;71.10;;;;;;4963569;28;20042;-48
2023/08/15 00:35:04;;;;;;;2.42;2.10;;;25.40;71.10;;;;;;4949149;28;20512;-49
2023/08/15 00:37:32;;;;;;;3.03;1.92;;;25.40;71.20;;;;;;4954842;28;20198;-49
2023/08/15 00:39:58;;;;;;;2.72;2.53;;;25.40;71.10;;;;;;4960902;28;20038;-54
2023/08/15 00:42:24;;;;;;;1.67;1.58;;;25.40;71.10;;;;;;4962054;28;20032;-56
2023/08/15 00:44:49;;;;;;;2.22;2.03;;;25.40;70.90;;;;;;4958457;28;20109;-48
2023/08/15 00:47:15;;;;;;;1.88;1.73;;;25.40;70.90;;;;;;4962378;28;20081;-48
2023/08/15 00:49:44;;;;;;;2.47;1.70;;;25.50;70.90;;;;;;4961210;28;20035;-52
2023/08/15 00:52:12;;;;;;;2.20;1.60;;;25.50;70.90;;;;;;4951920;28;20053;-51
2023/08/15 00:54:38;;;;;;;1.95;1.60;;;25.50;70.70;;;;;;4960481;28;20037;-53
2023/08/15 00:57:05;;;;;;;2.28;1.58;;;25.50;70.60;;;;;;4959540;28;20489;-52
2023/08/15 00:59:31;;;;;;;1.80;1.48;;;25.50;70.70;;;;;;4960525;28;20121;-53
2023/08/15 01:02:01;;;;;;;2.45;1.75;;;25.50;70.60;;;;;;4961778;28;20113;-56
2023/08/15 01:04:27;;;;;;;3.97;1.70;;;25.50;70.60;;;;;;4956281;28;20038;-52
2023/08/15 01:09:29;;;;;;;3.30;1.83;;;25.50;70.60;;;;;;5012497;28;20037;-52
2023/08/15 01:12:08;;;;;;;2.78;1.55;;;25.40;70.70;;;;;;5016069;28;20754;-51
2023/08/15 01:14:43;;;;;;;2.10;1.90;;;25.30;70.80;;;;;;5018559;28;20084;-51
2023/08/15 01:17:12;;;;;;;3.33;1.98;;;25.30;70.90;;;;;;5016680;28;20033;-52
2023/08/15 01:20:00;;;;;;;2.10;1.70;;;25.30;71.00;;;;;;5014791;28;20029;-54
2023/08/15 01:22:29;;;;;;;1.95;1.52;;;25.30;70.90;;;;;;5015089;28;20038;-53
2023/08/15 01:24:55;;;;;;;3.63;1.52;;;25.40;70.80;;;;;;5012251;28;20034;-55
2023/08/15 01:27:20;;;;;;;1.65;1.55;;;25.30;70.40;;;;;;5018346;28;20056;-56
2023/08/15 01:29:46;;;;;;;1.83;1.60;;;25.40;70.60;;;;;;5018190;28;20034;-53
2023/08/15 01:32:28;;;;;;;3.83;1.98;;;25.40;70.50;;;;;;5016213;28;20663;-54
2023/08/15 01:35:07;;;;;;;2.13;1.92;;;25.40;70.40;;;;;;5019237;28;20167;-49
2023/08/15 01:37:36;;;;;;;3.10;1.70;;;25.40;70.50;;;;;;5017273;28;20021;-53
2023/08/15 01:40:04;;;;;;;2.33;1.63;;;25.40;70.50;;;;;;5019340;28;20142;-49
2023/08/15 01:42:31;;;;;;;2.15;1.70;;;25.30;70.60;;;;;;5018514;28;20108;-52
2023/08/15 01:44:59;;;;;;;3.10;1.73;;;25.30;70.90;;;;;;5019532;28;20030;-54
2023/08/15 01:47:25;;;;;;;3.65;1.70;;;25.30;70.70;;;;;;5018781;28;20038;-55
2023/08/15 01:49:51;;;;;;;2.88;1.95;;;25.40;70.60;;;;;;5018184;28;20099;-52
2023/08/15 01:52:16;;;;;;;3.78;1.75;;;25.40;70.50;;;;;;5015394;28;20025;-53
2023/08/15 01:54:42;;;;;;;1.90;1.50;;;25.40;70.30;;;;;;5018352;28;20030;-50
2023/08/15 01:57:07;;;;;;;2.15;1.58;;;25.40;70.50;;;;;;5021489;28;20034;-52
2023/08/15 01:59:33;;;;;;;2.97;1.50;;;25.40;70.50;;;;;;5019267;28;20363;-52
2023/08/15 02:01:58;;;;;;;2.00;1.70;;;25.40;70.30;;;;;;5023370;28;20029;-48
2023/08/15 02:04:24;;;;;;;1.70;1.40;;;25.30;70.50;;;;;;5020322;28;20025;-53
2023/08/15 02:06:49;;;;;;;2.15;1.73;;;25.40;70.50;;;;;;5020764;28;20037;-54
2023/08/15 02:09:15;;;;;;;2.70;1.70;;;25.40;70.50;;;;;;5022431;28;20483;-52
2023/08/15 02:11:40;;;;;;;1.45;1.35;;;25.40;70.40;;;;;;5010683;28;20109;-55
2023/08/15 02:14:06;;;;;;;1.67;1.58;;;25.40;70.40;;;;;;5019456;28;20037;-53
2023/08/15 02:16:31;;;;;;;2.20;2.00;;;25.40;70.50;;;;;;5017220;28;20041;-50
2023/08/15 02:18:57;;;;;;;3.00;2.00;;;25.30;70.20;;;;;;5018705;28;20030;-55
2023/08/15 02:21:22;;;;;;;2.08;1.88;;;25.30;70.50;;;;;;5015373;28;20037;-53
2023/08/15 02:23:48;;;;;;;2.00;1.80;;;25.30;70.60;;;;;;5019526;28;20034;-49
2023/08/15 02:26:13;;;;;;;2.55;1.90;;;25.30;70.60;;;;;;5019139;28;20033;-51
2023/08/15 02:28:39;;;;;;;4.07;1.92;;;25.30;70.40;;;;;;5023694;28;20476;-55
2023/08/15 02:31:05;;;;;;;3.80;1.70;;;25.30;70.60;;;;;;5007824;28;20088;-54
2023/08/15 02:33:32;;;;;;;2.60;2.17;;;25.30;70.50;;;;;;5023167;28;20372;-52
2023/08/15 02:36:05;;;;;;;3.17;2.17;;;25.30;70.50;;;;;;5015424;28;20084;-54
2023/08/15 02:38:30;;;;;;;2.40;1.92;;;25.30;70.60;;;;;;5017591;28;20033;-48
2023/08/15 02:40:56;;;;;;;2.17;1.73;;;25.20;70.70;;;;;;5009085;28;20442;-49
2023/08/15 02:43:21;;;;;;;3.50;2.63;;;25.20;71.00;;;;;;5011738;28;20087;-53
2023/08/15 02:45:47;;;;;;;2.40;2.10;;;25.30;70.90;;;;;;5014267;28;20368;-48
2023/08/15 02:48:12;;;;;;;2.28;2.08;;;25.30;70.70;;;;;;4997991;28;20689;-49
2023/08/15 02:50:38;;;;;;;3.00;2.35;;;25.30;70.70;;;;;;5013701;28;20125;-50
2023/08/15 02:53:03;;;;;;;3.08;2.78;;;25.30;70.60;;;;;;5011541;28;20052;-54
2023/08/15 02:55:29;;;;;;;2.35;2.15;;;25.30;70.50;;;;;;5019881;28;20030;-48
2023/08/15 02:57:54;;;;;;;4.13;2.90;;;25.30;70.80;;;;;;5009750;28;20149;-48
2023/08/15 03:00:20;;;;;;;3.00;2.60;;;25.30;70.80;;;;;;5008607;28;20513;-54
2023/08/15 03:02:46;;;;;;;3.58;2.42;;;25.30;71.00;;;;;;5021459;28;20029;-55
2023/08/15 03:05:11;;;;;;;2.60;2.40;;;25.30;70.80;;;;;;5010994;28;20068;-54
2023/08/15 03:07:37;;;;;;;3.38;2.25;;;25.30;70.60;;;;;;5014279;28;20068;-52
2023/08/15 03:10:03;;;;;;;2.42;2.22;;;25.30;70.40;;;;;;5021760;28;20037;-50
2023/08/15 03:12:29;;;;;;;3.72;2.35;;;25.30;70.60;;;;;;5020892;28;20029;-52
2023/08/15 03:14:56;;;;;;;3.35;2.38;;;25.30;70.50;;;;;;5020396;28;20052;-51
2023/08/15 03:17:22;;;;;;;5.03;2.70;;;25.30;70.50;;;;;;5018701;28;20529;-48
2023/08/15 03:19:47;;;;;;;3.38;3.10;;;25.30;70.50;;;;;;5021606;28;20033;-52
2023/08/15 03:22:13;;;;;;;3.00;2.75;;;25.30;70.40;;;;;;5017134;28;20038;-57
2023/08/15 03:24:38;;;;;;;3.47;3.17;;;25.30;70.30;;;;;;5020133;28;20064;-54
2023/08/15 03:27:04;;;;;;;3.47;3.17;;;25.40;70.50;;;;;;5020778;28;20419;-48
2023/08/15 03:29:29;;;;;;;3.08;2.85;;;25.30;70.40;;;;;;5017547;28;20037;-49
2023/08/15 03:31:57;;;;;;;3.78;3.38;;;25.30;70.30;;;;;;5017430;28;20036;-55
2023/08/15 03:34:23;;;;;;;6.10;3.28;;;25.30;70.50;;;;;;5019524;28;20029;-54
2023/08/15 03:36:49;;;;;;;4.65;3.50;;;25.30;70.30;;;;;;5018058;28;20041;-55
2023/08/15 03:39:14;;;;;;;4.72;3.33;;;25.40;70.40;;;;;;5019256;28;20021;-49
2023/08/15 03:41:40;;;;;;;3.85;3.50;;;25.30;70.40;;;;;;5018982;28;20061;-49
2023/08/15 03:44:05;;;;;;;4.70;3.50;;;25.30;70.30;;;;;;5021978;28;20021;-55
2023/08/15 03:46:31;;;;;;;5.72;3.50;;;25.30;70.30;;;;;;5020373;28;20029;-54
2023/08/15 03:48:56;;;;;;;5.07;3.55;;;25.30;70.30;;;;;;5019856;28;20053;-50
2023/08/15 03:51:22;;;;;;;4.25;3.47;;;25.40;70.30;;;;;;5019788;28;20037;-54
2023/08/15 03:53:47;;;;;;;5.60;4.20;;;25.30;70.40;;;;;;5020285;28;21702;-53
2023/08/15 03:56:13;;;;;;;4.53;4.13;;;25.40;70.40;;;;;;5018364;28;20282;-51
2023/08/15 03:58:38;;;;;;;5.88;4.15;;;25.30;70.30;;;;;;5020114;28;20075;-54
2023/08/15 04:01:04;;;;;;;4.78;4.38;;;25.40;70.90;;;;;;5019646;28;20037;-54
2023/08/15 04:03:30;;;;;;;3.92;3.63;;;25.30;70.20;;;;;;5018779;28;20175;-56
2023/08/15 04:05:55;;;;;;;5.13;4.63;;;25.30;70.20;;;;;;5017062;28;20041;-54
2023/08/15 04:08:21;;;;;;;5.53;4.40;;;25.40;70.30;;;;;;5016794;28;20211;-51
2023/08/15 04:10:47;;;;;;;4.53;4.13;;;25.30;70.10;;;;;;5018206;28;20026;-49
2023/08/15 04:13:14;;;;;;;4.95;4.50;;;25.30;70.20;;;;;;5019629;28;20026;-57
2023/08/15 04:15:40;;;;;;;3.85;3.53;;;25.30;70.20;;;;;;5012563;28;20115;-50
2023/08/15 04:18:07;;;;;;;5.50;4.43;;;25.30;70.30;;;;;;5004722;28;20073;-52
2023/08/15 04:20:37;;;;;;;4.75;4.25;;;25.30;70.30;;;;;;5011595;28;20361;-53
2023/08/15 04:23:04;;;;;;;5.00;4.55;;;25.30;70.30;;;;;;5021597;28;20048;-56
2023/08/15 04:25:29;;;;;;;5.57;4.28;;;25.30;70.30;;;;;;5013158;28;20068;-48
2023/08/15 04:27:55;;;;;;;5.20;4.70;;;25.30;70.30;;;;;;5015918;28;20099;-52
2023/08/15 04:30:20;;;;;;;5.15;4.75;;;25.30;70.40;;;;;;5006678;28;20038;-54
2023/08/15 04:32:46;;;;;;;4.63;4.22;;;25.30;70.30;;;;;;5018935;28;20049;-49
2023/08/15 04:35:13;;;;;;;5.65;5.15;;;25.30;70.20;;;;;;5017878;28;20536;-46
2023/08/15 04:37:39;;;;;;;5.70;5.20;;;25.30;70.20;;;;;;5019753;28;20037;-53
2023/08/15 04:40:05;;;;;;;4.88;4.47;;;25.30;70.10;;;;;;5014806;28;20033;-52
2023/08/15 04:42:30;;;;;;;5.30;4.90;;;25.40;70.20;;;;;;5021631;28;20041;-48
2023/08/15 04:44:56;;;;;;;4.65;4.25;;;25.30;70.00;;;;;;5013374;28;20088;-51
2023/08/15 04:47:21;;;;;;;7.50;5.55;;;25.30;70.00;;;;;;5014850;28;20044;-54
2023/08/15 04:49:47;;;;;;;6.00;5.50;;;25.30;70.30;;;;;;5007881;28;20036;-50
2023/08/15 04:52:15;;;;;;;5.25;4.82;;;25.20;70.80;;;;;;5015543;28;20425;-48
2023/08/15 04:54:41;;;;;;;10.02;6.78;;;25.10;71.70;;;;;;5007498;28;20025;-52
2023/08/15 04:57:06;;;;;;;10.27;7.15;;;25.10;72.10;;;;;;5022104;28;20376;-48
2023/08/15 04:59:32;;;;;;;9.38;7.47;;;25.00;72.30;;;;;;5013745;28;20459;-50
2023/08/15 05:01:58;;;;;;;8.90;6.80;;;25.00;72.60;;;;;;5018829;28;20411;-48
2023/08/15 05:04:23;;;;;;;8.43;7.57;;;24.90;72.80;;;;;;5006258;28;20087;-54
2023/08/15 05:06:49;;;;;;;8.73;7.75;;;24.90;73.20;;;;;;5018259;28;20549;-50
2023/08/15 05:09:14;;;;;;;12.23;7.82;;;24.90;73.60;;;;;;5015548;28;20034;-49
2023/08/15 05:11:42;;;;;;;9.00;6.80;;;24.90;74.20;;;;;;5019325;28;20029;-50
2023/08/15 05:14:08;;;;;;;13.55;7.60;;;25.00;74.10;;;;;;5020571;28;20033;-50
2023/08/15 05:16:33;;;;;;;12.63;8.05;;;25.00;73.90;;;;;;5019210;28;20072;-54
2023/08/15 05:18:59;;;;;;;8.65;7.38;;;25.00;73.40;;;;;;5015110;28;20269;-50
2023/08/15 05:21:25;;;;;;;9.20;7.18;;;25.00;73.00;;;;;;5013193;28;20121;-53
2023/08/15 05:23:51;;;;;;;7.82;6.97;;;25.00;72.80;;;;;;5017518;28;20036;-49
2023/08/15 05:26:16;;;;;;;7.45;6.75;;;25.00;72.80;;;;;;5020374;28;20034;-54
2023/08/15 05:28:42;;;;;;;12.30;7.50;;;25.10;74.40;;;;;;5018916;28;20029;-49
2023/08/15 05:31:08;;;;;;;8.35;6.95;;;25.10;75.10;;;;;;5021828;28;20454;-47
2023/08/15 05:33:33;;;;;;;12.82;7.75;;;25.10;74.60;;;;;;5021880;28;20818;-50
2023/08/15 05:35:59;;;;;;;8.45;6.97;;;25.10;74.60;;;;;;5023256;28;20387;-50
2023/08/15 05:38:24;;;;;;;7.38;6.53;;;25.10;74.50;;;;;;5020425;28;20037;-52
2023/08/15 05:40:50;;;;;;;8.98;7.10;;;25.10;74.30;;;;;;5021314;28;20129;-48
2023/08/15 05:43:15;;;;;;;7.82;6.32;;;25.10;74.10;;;;;;5023687;28;20061;-53
2023/08/15 05:45:43;;;;;;;7.65;6.85;;;25.10;74.10;;;;;;5021294;28;20057;-48
2023/08/15 05:48:09;;;;;;;12.18;6.85;;;25.10;74.00;;;;;;5022767;28;20049;-47
2023/08/15 05:50:34;;;;;;;11.75;7.28;;;25.10;74.10;;;;;;5016989;28;20057;-53
2023/08/15 05:53:00;;;;;;;7.80;7.03;;;25.10;74.20;;;;;;5020416;28;20025;-51
2023/08/15 05:55:25;;;;;;;10.13;7.18;;;25.10;74.10;;;;;;5022870;28;20048;-51
2023/08/15 05:57:51;;;;;;;8.18;6.57;;;25.10;73.90;;;;;;5021592;28;20041;-50
2023/08/15 06:00:18;;;;;;;6.90;6.05;;;25.10;73.70;;;;;;5021816;28;20033;-54
2023/08/15 06:02:44;;;;;;;9.10;6.80;;;25.20;73.50;;;;;;5021730;28;20030;-56
2023/08/15 06:05:09;;;;;;;6.30;5.72;;;25.20;73.90;;;;;;5021876;28;20033;-51
2023/08/15 06:07:35;;;;;;;7.47;6.53;;;25.20;73.70;;;;;;5022066;28;20040;-51
2023/08/15 06:10:01;;;;;;;6.53;6.03;;;25.20;73.70;;;;;;5021414;28;20034;-49
2023/08/15 06:12:27;;;;;;;9.10;6.65;;;25.20;73.70;;;;;;5019942;28;20025;-49
2023/08/15 06:14:52;;;;;;;8.15;7.35;;;25.30;73.40;;;;;;5020804;28;20033;-53
2023/08/15 06:17:18;;;;;;;6.75;6.15;;;25.30;73.20;;;;;;5018703;28;20029;-49
2023/08/15 06:19:44;;;;;;;8.30;6.47;;;25.30;73.10;;;;;;5019296;28;20029;-52
2023/08/15 06:22:09;;;;;;;6.32;5.72;;;25.30;72.70;;;;;;5022587;28;20033;-51
2023/08/15 06:24:35;;;;;;;6.43;5.82;;;25.40;72.50;;;;;;5021515;28;20017;-52
2023/08/15 06:27:00;;;;;;;6.93;6.32;;;25.40;72.40;;;;;;5023046;28;20136;-47
2023/08/15 06:29:26;;;;;;;6.80;6.20;;;25.40;72.20;;;;;;5021639;28;20083;-52
2023/08/15 06:31:53;;;;;;;7.35;6.20;;;25.40;72.00;;;;;;5020846;28;20071;-55
2023/08/15 06:34:18;;;;;;;7.28;6.55;;;25.40;71.90;;;;;;5021465;28;20042;-53
2023/08/15 06:36:44;;;;;;;7.07;6.38;;;25.50;71.90;;;;;;5021016;28;20030;-55
2023/08/15 06:39:11;;;;;;;6.93;6.32;;;25.50;71.80;;;;;;5002538;28;20029;-52
2023/08/15 06:41:37;;;;;;;7.05;6.45;;;25.50;71.70;;;;;;5017264;28;20025;-50
2023/08/15 06:44:03;;;;;;;7.32;6.10;;;25.50;71.70;;;;;;5000296;28;20431;-48
2023/08/15 06:46:28;;;;;;;7.13;6.53;;;25.50;71.60;;;;;;5009556;28;20113;-50
2023/08/15 06:48:54;;;;;;;6.63;5.85;;;25.50;71.70;;;;;;5001441;28;20155;-54
2023/08/15 06:51:20;;;;;;;6.70;6.05;;;25.50;71.50;;;;;;5021287;28;20029;-48
2023/08/15 06:53:45;;;;;;;7.53;6.78;;;25.50;71.50;;;;;;5020868;28;20029;-48
2023/08/15 06:56:11;;;;;;;9.57;6.78;;;25.50;71.50;;;;;;5022642;28;20033;-51
2023/08/15 06:58:37;;;;;;;6.25;5.63;;;25.50;71.60;;;;;;5019374;28;20522;-54
2023/08/15 07:01:03;;;;;;;5.88;5.38;;;25.50;71.60;;;;;;5020924;28;20107;-52
2023/08/15 07:03:28;;;;;;;6.10;5.60;;;25.50;71.50;;;;;;5017745;28;20067;-51
2023/08/15 07:05:54;;;;;;;6.70;5.78;;;25.50;71.40;;;;;;5018679;28;20033;-50
2023/08/15 07:08:20;;;;;;;6.65;6.05;;;25.50;71.30;;;;;;5013693;28;20065;-57
2023/08/15 07:10:45;;;;;;;7.97;6.15;;;25.50;71.30;;;;;;5014595;28;20120;-51
2023/08/15 07:13:11;;;;;;;8.13;6.25;;;25.50;71.20;;;;;;5019525;28;20025;-51
2023/08/15 07:15:37;;;;;;;6.65;5.95;;;25.50;71.40;;;;;;5016173;28;20034;-52
2023/08/15 07:18:03;;;;;;;6.03;5.43;;;25.60;71.70;;;;;;5019047;28;20038;-53
2023/08/15 07:20:28;;;;;;;7.15;6.25;;;25.60;71.70;;;;;;5019506;28;20029;-57
2023/08/15 07:22:55;;;;;;;5.63;5.05;;;25.60;71.70;;;;;;5019184;28;20403;-52
2023/08/15 07:25:20;;;;;;;5.55;5.05;;;25.60;71.90;;;;;;5002918;28;20036;-55
2023/08/15 07:27:46;;;;;;;6.20;5.60;;;25.60;71.70;;;;;;5019437;28;20033;-49
2023/08/15 07:30:13;;;;;;;6.15;5.55;;;25.60;71.70;;;;;;5020070;28;20037;-48
2023/08/15 07:32:39;;;;;;;6.65;5.95;;;25.60;71.90;;;;;;5022149;28;20030;-53
2023/08/15 07:35:05;;;;;;;6.05;5.43;;;25.60;72.00;;;;;;5021615;28;20091;-48
2023/08/15 07:37:31;;;;;;;6.70;6.10;;;25.70;72.30;;;;;;5017715;28;20601;-51
2023/08/15 07:40:00;;;;;;;6.57;4.97;;;25.70;72.20;;;;;;5017645;28;20218;-54
2023/08/15 07:42:26;;;;;;;8.45;5.65;;;25.70;72.20;;;;;;5020673;28;20029;-53
2023/08/15 07:44:52;;;;;;;5.72;5.10;;;25.70;72.00;;;;;;5018041;28;20558;-50
2023/08/15 07:47:17;;;;;;;5.50;5.00;;;25.70;72.40;;;;;;5020877;28;20043;-55
2023/08/15 07:49:43;;;;;;;5.28;4.78;;;25.70;71.80;;;;;;5018542;28;20041;-55
2023/08/15 07:52:09;;;;;;;11.10;5.30;;;25.70;71.80;;;;;;5019189;28;20025;-48
2023/08/15 07:54:35;;;;;;;6.25;5.25;;;25.70;72.00;;;;;;5019720;28;20121;-48
2023/08/15 07:57:00;;;;;;;5.43;4.93;;;25.70;71.80;;;;;;5017442;28;20025;-49
2023/08/15 07:59:26;;;;;;;6.35;5.75;;;25.70;71.70;;;;;;5017829;28;20038;-56
2023/08/15 08:01:51;;;;;;;5.47;4.97;;;25.80;71.50;;;;;;5018617;28;20028;-49
2023/08/15 08:04:19;;;;;;;6.05;5.20;;;25.80;71.30;;;;;;5020795;28;20239;-49
2023/08/15 08:06:44;;;;;;;7.07;5.45;;;25.80;71.30;;;;;;5018670;28;20128;-54
2023/08/15 08:09:10;;;;;;;6.40;5.60;;;25.80;71.40;;;;;;5014431;28;20156;-55
2023/08/15 08:11:36;;;;;;;5.43;4.93;;;25.80;71.20;;;;;;5018175;28;20029;-52
2023/08/15 08:14:03;;;;;;;6.82;5.93;;;25.80;71.20;;;;;;5016215;28;20038;-54
2023/08/15 08:16:29;;;;;;;7.43;5.15;;;25.80;71.40;;;;;;5018704;28;20033;-51
2023/08/15 08:18:54;;;;;;;7.18;5.50;;;25.80;71.30;;;;;;5020592;28;20071;-52
2023/08/15 08:21:20;;;;;;;6.30;5.70;;;25.80;71.30;;;;;;5019824;28;20095;-50
2023/08/15 08:23:45;;;;;;;5.75;5.15;;;25.80;71.20;;;;;;5019697;28;20033;-49
2023/08/15 08:26:11;;;;;;;6.40;5.32;;;25.80;71.10;;;;;;5016863;28;20112;-53
2023/08/15 08:28:36;;;;;;;6.78;5.38;;;25.80;71.10;;;;;;5018329;28;20025;-56
2023/08/15 08:31:03;;;;;;;8.50;5.35;;;25.80;71.20;;;;;;5017670;28;20071;-50
2023/08/15 08:33:28;;;;;;;5.72;5.25;;;25.80;71.20;;;;;;5019692;28;20767;-54
2023/08/15 08:35:54;;;;;;;5.32;4.82;;;25.80;71.20;;;;;;5017101;28;20033;-53
2023/08/15 08:38:20;;;;;;;5.40;4.82;;;25.80;71.20;;;;;;5015934;28;20103;-52
2023/08/15 08:40:47;;;;;;;7.80;6.00;;;25.80;71.40;;;;;;5012169;28;20395;-51
2023/08/15 08:43:14;;;;;;;8.60;5.25;;;25.80;71.60;;;;;;5017483;28;20453;-53
2023/08/15 08:45:46;;;;;;;6.63;5.32;;;25.90;71.50;;;;;;5018333;28;20029;-50
2023/08/15 08:48:12;;;;;;;5.72;5.10;;;25.80;71.30;;;;;;5020297;28;20025;-55
2023/08/15 08:50:39;;;;;;;5.97;5.47;;;25.80;71.10;;;;;;4996849;28;20487;-50
2023/08/15 08:53:05;;;;;;;6.63;5.60;;;25.80;71.10;;;;;;4989518;28;20037;-53
2023/08/15 08:55:31;;;;;;;7.43;6.72;;;25.90;71.00;;;;;;5018979;28;20037;-49
2023/08/15 08:57:59;;;;;;;6.35;5.28;;;25.90;71.00;;;;;;5016624;28;20113;-51
2023/08/15 09:00:31;;;;;;;6.90;6.25;;;25.90;71.10;;;;;;5017929;28;20037;-53
2023/08/15 09:02:57;;;;;;;5.65;5.07;;;25.90;71.50;;;;;;5017884;28;20037;-47
2023/08/15 09:05:24;;;;;;;7.80;6.10;;;25.90;71.70;;;;;;5014161;28;20041;-46
2023/08/15 09:07:50;;;;;;;6.10;5.50;;;25.90;71.70;;;;;;5015804;28;20037;-48
2023/08/15 09:10:15;;;;;;;7.00;6.30;;;25.90;71.60;;;;;;5018508;28;20044;-50
2023/08/15 09:12:42;;;;;;;6.05;5.45;;;26.00;71.50;;;;;;5013422;28;20075;-47
2023/08/15 09:15:08;;;;;;;9.40;5.60;;;26.00;71.40;;;;;;5019236;28;20056;-46
2023/08/15 09:17:35;;;;;;;6.72;5.40;;;26.00;70.60;;;;;;5019240;28;20068;-54
2023/08/15 09:20:14;;;;;;;6.22;5.57;;;26.00;69.90;;;;;;5016031;28;20041;-51
2023/08/15 09:22:45;;;;;;;6.13;5.03;;;26.00;70.10;;;;;;5014924;28;20027;-57
2023/08/15 09:25:16;;;;;;;6.90;4.95;;;26.00;69.80;;;;;;5017212;28;20083;-49
2023/08/15 09:27:43;;;;;;;8.43;5.30;;;26.00;69.60;;;;;;5018596;28;20490;-50
2023/08/15 09:30:16;;;;;;;6.47;4.72;;;26.00;69.60;;;;;;5011972;28;20107;-49
2023/08/15 09:32:43;;;;;;;7.07;4.55;;;26.00;68.80;;;;;;5015613;28;20549;-47
2023/08/15 09:35:11;;;;;;;8.10;5.18;;;26.10;68.90;;;;;;5011979;28;20038;-50
2023/08/15 09:37:44;;;;;;;5.47;4.60;;;26.00;68.70;;;;;;5015233;28;20029;-53
2023/08/15 09:40:15;;;;;;;7.68;5.05;;;26.10;68.40;;;;;;5016881;28;20542;-50
2023/08/15 09:42:41;;;;;;;10.65;4.53;;;26.10;68.50;;;;;;5018500;28;20112;-55
2023/08/15 09:45:08;;;;;;;7.90;5.28;;;26.00;68.30;;;;;;5017647;28;20108;-47
2023/08/15 09:47:36;;;;;;;7.63;5.50;;;26.00;68.30;;;;;;5016898;28;20562;-50
2023/08/15 09:50:03;;;;;;;9.98;6.32;;;26.00;68.10;;;;;;5016758;28;20034;-52
2023/08/15 09:52:30;;;;;;;9.95;7.60;;;26.00;68.00;;;;;;5014986;28;20109;-54
2023/08/15 09:54:56;;;;;;;11.07;7.65;;;26.00;68.30;;;;;;5010334;28;20036;-50
2023/08/15 09:57:21;;;;;;;12.68;7.72;;;26.00;68.10;;;;;;5014215;28;20423;-54
2023/08/15 09:59:47;;;;;;;8.63;7.05;;;26.00;68.00;;;;;;5006981;28;20025;-48
2023/08/15 10:02:22;;;;;;;9.70;7.00;;;26.00;68.30;;;;;;4995107;28;20510;-47
2023/08/15 10:05:02;;;;;;;;;;;26.00;68.70;;;;;;4989577;28;20088;-55
2023/08/15 10:07:32;;;;;;;8.00;6.53;;;26.00;68.80;;;;;;5016902;28;20436;-53
2023/08/15 10:10:03;;;;;;;10.35;6.85;;;26.00;69.10;;;;;;5008815;28;20105;-47
2023/08/15 10:12:29;;;;;;;11.10;6.85;;;26.00;69.20;;;;;;5011062;28;20510;-51
2023/08/15 10:14:57;;;;;;;8.27;6.55;;;26.00;69.50;;;;;;4996077;28;20069;-47
2023/08/15 10:17:25;;;;;;;10.90;6.85;;;26.00;69.80;;;;;;5001690;28;20064;-48
2023/08/15 10:19:50;;;;;;;10.68;7.10;;;26.00;69.70;;;;;;5024356;28;20083;-52
2023/08/15 10:22:18;;;;;;;8.68;7.82;;;26.00;69.90;;;;;;5020112;28;20022;-54
2023/08/15 10:24:44;;;;;;;7.63;6.93;;;26.10;70.10;;;;;;5017008;28;20030;-54
2023/08/15 10:27:11;;;;;;;11.57;7.70;;;26.00;70.20;;;;;;5017147;28;20048;-51
2023/08/15 10:29:58;;;;;;;8.95;7.50;;;26.00;70.50;;;;;;5016232;28;20021;-53
2023/08/15 10:32:25;;;;;;;10.50;7.10;;;26.00;70.50;;;;;;5012630;28;20105;-53
2023/08/15 10:34:58;;;;;;;10.52;7.90;;;26.00;70.80;;;;;;5014256;28;20446;-48
2023/08/15 10:37:33;;;;;;;8.95;7.97;;;26.00;70.70;;;;;;5010049;28;20080;-50
2023/08/15 10:40:08;;;;;;;9.10;6.75;;;26.00;70.90;;;;;;5021933;28;20029;-49
2023/08/15 10:43:01;;;;;;;9.73;7.13;;;26.00;70.90;;;;;;5018135;28;20034;-55
2023/08/15 10:45:30;;;;;;;8.40;7.53;;;26.00;71.50;;;;;;5019106;28;20057;-51
2023/08/15 10:47:57;;;;;;;9.57;7.55;;;26.00;71.50;;;;;;5016235;28;20057;-52
2023/08/15 10:50:23;;;;;;;8.60;7.53;;;26.00;71.90;;;;;;5016894;28;20037;-47
2023/08/15 10:53:07;;;;;;;9.25;7.40;;;26.00;71.80;;;;;;5019850;28;20563;-55
2023/08/15 10:55:35;;;;;;;10.70;7.13;;;26.00;71.70;;;;;;5021288;28;20049;-56
2023/08/15 10:58:08;;;;;;;8.13;6.75;;;26.00;71.70;;;;;;5013431;28;20036;-49
2023/08/15 11:00:36;;;;;;;9.60;7.57;;;26.00;71.80;;;;;;5022447;28;20046;-49
2023/08/15 11:03:02;;;;;;;10.10;8.07;;;26.00;72.20;;;;;;5019153;28;20556;-53
2023/08/15 11:05:28;;;;;;;8.73;7.03;;;26.00;72.30;;;;;;5021664;28;20037;-50
2023/08/15 11:07:55;;;;;;;9.10;7.05;;;26.10;72.60;;;;;;5018823;28;20609;-53
2023/08/15 11:10:22;;;;;;;8.45;7.43;;;26.10;72.60;;;;;;5020301;28;20061;-54
2023/08/15 11:12:49;;;;;;;7.70;7.00;;;26.00;72.80;;;;;;5001505;28;20034;-54
2023/08/15 11:15:15;;;;;;;11.63;7.43;;;26.10;73.10;;;;;;4997811;28;20029;-50
2023/08/15 11:17:48;;;;;;;11.80;7.20;;;26.10;73.50;;;;;;5018576;28;20057;-47
2023/08/15 11:20:14;;;;;;;9.75;6.85;;;26.00;73.30;;;;;;5014505;28;20495;-54
2023/08/15 11:22:40;;;;;;;7.82;6.95;;;26.10;73.50;;;;;;5019469;28;20052;-50
2023/08/15 11:25:10;;;;;;;9.68;6.63;;;26.00;73.20;;;;;;5020564;28;20040;-50
2023/08/15 11:27:45;;;;;;;12.02;6.88;;;26.00;73.80;;;;;;5016590;28;20060;-49
2023/08/15 11:30:11;;;;;;;11.73;7.05;;;26.00;73.50;;;;;;5016733;28;20052;-55
2023/08/15 11:32:39;;;;;;;11.82;6.90;;;26.00;73.10;;;;;;5017016;28;20037;-53
2023/08/15 11:35:06;;;;;;;9.13;7.10;;;26.00;73.40;;;;;;5017250;28;20128;-52
2023/08/15 11:37:32;;;;;;;8.07;6.80;;;26.00;73.60;;;;;;4999514;28;20057;-49
2023/08/15 11:39:57;;;;;;;8.48;7.22;;;26.00;73.30;;;;;;5020551;28;20065;-47
2023/08/15 11:42:23;;;;;;;8.02;7.10;;;26.00;73.40;;;;;;5000729;28;20611;-53
2023/08/15 11:45:09;;;;;;;8.57;6.90;;;26.00;73.60;;;;;;5021823;28;20030;-54
2023/08/15 11:47:35;;;;;;;9.57;7.03;;;26.00;73.70;;;;;;5018956;28;20037;-50
2023/08/15 11:50:09;;;;;;;11.73;7.47;;;26.00;73.70;;;;;;4998992;28;20045;-52
2023/08/15 11:52:42;;;;;;;7.88;5.80;;;26.00;73.60;;;;;;5018232;28;20100;-49
2023/08/15 11:55:09;;;;;;;12.65;6.57;;;26.00;73.70;;;;;;4999907;28;20486;-50
2023/08/15 11:57:35;;;;;;;10.32;6.75;;;26.00;73.80;;;;;;5021045;28;20039;-52
2023/08/15 12:00:01;;;;;;;10.93;6.80;;;26.00;73.80;;;;;;5020977;28;20030;-49
2023/08/15 12:02:27;;;;;;;10.10;6.53;;;26.00;74.00;;;;;;5017441;28;20459;-49
2023/08/15 12:04:53;;;;;;;11.98;7.13;;;26.00;74.10;;;;;;5000572;28;20099;-50
2023/08/15 12:07:19;;;;;;;9.18;6.43;;;26.00;73.80;;;;;;5016184;28;20036;-54
2023/08/15 12:09:46;;;;;;;8.25;6.20;;;26.00;74.30;;;;;;5018211;28;20049;-53
2023/08/15 12:12:19;;;;;;;7.15;5.85;;;26.00;73.90;;;;;;5015893;28;20036;-53
2023/08/15 12:14:44;;;;;;;7.00;6.30;;;26.00;73.90;;;;;;5019808;28;20032;-50
2023/08/15 12:17:10;;;;;;;6.78;6.10;;;26.00;74.20;;;;;;5019831;28;20033;-52
2023/08/15 12:19:35;;;;;;;8.10;6.07;;;26.10;74.20;;;;;;5016262;28;20018;-53
2023/08/15 12:22:02;;;;;;;9.25;6.30;;;26.00;74.10;;;;;;5017814;28;20491;-49
2023/08/15 12:24:28;;;;;;;6.55;5.95;;;26.00;74.10;;;;;;5008864;28;20176;-47
2023/08/15 12:26:54;;;;;;;10.38;6.15;;;26.00;73.90;;;;;;5016868;28;20586;-49
2023/08/15 12:29:19;;;;;;;6.40;5.80;;;26.00;73.70;;;;;;5012777;28;20037;-50
2023/08/15 12:31:45;;;;;;;6.88;6.28;;;26.00;73.80;;;;;;5018632;28;20403;-50
2023/08/15 12:34:10;;;;;;;9.35;6.05;;;26.00;73.60;;;;;;5006250;28;20434;-48
2023/08/15 12:36:36;;;;;;;8.63;6.15;;;26.00;74.10;;;;;;5005492;28;20407;-50
2023/08/15 12:39:03;;;;;;;9.70;6.10;;;26.00;73.90;;;;;;5007001;28;20112;-48
2023/08/15 12:41:28;;;;;;;7.90;6.05;;;26.00;73.90;;;;;;5011267;28;20114;-48
2023/08/15 12:43:54;;;;;;;7.60;5.75;;;26.00;74.00;;;;;;5019161;28;20030;-53
2023/08/15 12:46:20;;;;;;;7.60;6.28;;;26.00;74.00;;;;;;4993844;28;20044;-48